createdAt,value
2019-05-13T00:02:19.503Z,59.99
2019-05-13T00:04:48.814Z,59.97
2019-05-13T00:07:18.430Z,59.86
2019-05-13T00:09:47.840Z,60.19
2019-05-13T00:12:17.246Z,59.10
2019-05-13T00:14:46.622Z,60.06
2019-05-13T00:17:15.718Z,59.80
2019-05-13T00:19:44.918Z,60.56
2019-05-13T00:22:14.509Z,60.42
2019-05-13T00:24:44.432Z,60.95
2019-05-13T00:27:14.155Z,60.59
2019-05-13T00:29:44.366Z,60.72
2019-05-13T00:32:13.562Z,61.93
2019-05-13T00:34:44.589Z,61.81
2019-05-13T00:37:14.644Z,62.36
2019-05-13T00:39:44.285Z,62.14
2019-05-13T00:42:14.276Z,61.86
2019-05-13T00:44:44.336Z,61.86
2019-05-13T00:47:13.360Z,61.74
2019-05-13T00:49:43.715Z,61.92
2019-05-13T00:52:14.275Z,62.71
2019-05-13T00:54:44.159Z,62.85
2019-05-13T00:57:13.416Z,62.39
2019-05-13T00:59:44.382Z,62.75
2019-05-13T01:02:13.958Z,62.60
2019-05-13T01:04:44.212Z,63.31
2019-05-13T01:07:25.140Z,62.60
2019-05-13T01:09:44.342Z,63.13
2019-05-13T01:12:13.484Z,62.76
2019-05-13T01:14:43.191Z,62.74
2019-05-13T01:17:14.203Z,63.22
2019-05-13T01:19:43.362Z,62.93
2019-05-13T01:22:13.517Z,62.63
2019-05-13T01:24:44.306Z,62.50
2019-05-13T01:27:14.014Z,62.91
2019-05-13T01:29:43.576Z,62.67
2019-05-13T01:32:14.476Z,62.39
2019-05-13T01:34:44.360Z,62.83
2019-05-13T01:37:13.370Z,62.62
2019-05-13T01:39:43.709Z,62.56
2019-05-13T01:42:13.748Z,62.31
2019-05-13T01:44:44.484Z,62.42
2019-05-13T01:47:13.547Z,62.09
2019-05-13T01:49:43.999Z,62.29
2019-05-13T01:52:13.719Z,62.62
2019-05-13T01:54:44.269Z,62.50
2019-05-13T01:57:14.246Z,63.06
2019-05-13T01:59:43.602Z,63.09
2019-05-13T02:02:13.741Z,63.25
2019-05-13T02:04:43.932Z,63.43
2019-05-13T02:07:14.355Z,62.98
2019-05-13T02:09:44.309Z,63.80
2019-05-13T02:12:13.532Z,63.76
2019-05-13T02:14:44.282Z,63.23
2019-05-13T02:17:14.588Z,64.91
2019-05-13T02:19:44.233Z,64.68
2019-05-13T02:22:14.606Z,64.83
2019-05-13T02:24:44.703Z,64.48
2019-05-13T02:27:14.277Z,65.65
2019-05-13T02:29:43.719Z,65.58
2019-05-13T02:32:13.630Z,65.85
2019-05-13T02:34:43.948Z,65.57
2019-05-13T02:37:13.117Z,65.95
2019-05-13T02:39:42.734Z,65.50
2019-05-13T02:42:13.259Z,65.83
2019-05-13T02:44:43.721Z,65.66
2019-05-13T02:47:12.771Z,65.41
2019-05-13T02:49:43.086Z,65.50
2019-05-13T02:52:13.449Z,66.40
2019-05-13T02:54:42.783Z,66.00
2019-05-13T02:57:12.649Z,65.69
2019-05-13T02:59:43.166Z,66.32
2019-05-13T03:02:12.564Z,66.25
2019-05-13T03:04:43.633Z,66.57
2019-05-13T03:07:12.608Z,66.58
2019-05-13T03:09:42.295Z,67.32
2019-05-13T03:12:12.993Z,67.48
2019-05-13T03:14:47.903Z,67.44
2019-05-13T03:17:14.825Z,67.85
2019-05-13T03:19:45.258Z,67.32
2019-05-13T03:22:14.151Z,67.79
2019-05-13T03:24:43.220Z,67.76
2019-05-13T03:27:12.951Z,67.77
2019-05-13T03:29:43.236Z,67.30
2019-05-13T03:34:45.461Z,68.30
2019-05-13T03:37:15.283Z,67.38
2019-05-13T03:39:45.427Z,68.72
2019-05-13T03:42:14.414Z,69.45
2019-05-13T03:44:45.108Z,68.47
2019-05-13T03:47:14.129Z,69.07
2019-05-13T03:49:44.707Z,69.35
2019-05-13T03:52:13.733Z,69.12
2019-05-13T03:54:43.631Z,68.48
2019-05-13T03:57:12.810Z,70.51
2019-05-13T03:59:43.708Z,69.73
2019-05-13T04:02:13.090Z,69.14
2019-05-13T04:04:42.519Z,68.87
2019-05-13T04:07:13.191Z,69.51
2019-05-13T04:09:42.624Z,69.01
2019-05-13T04:12:13.384Z,70.03
2019-05-13T04:14:42.801Z,69.78
2019-05-13T04:17:12.738Z,69.25
2019-05-13T04:19:42.497Z,69.11
2019-05-13T04:22:13.102Z,69.84
2019-05-13T04:24:42.829Z,69.70
2019-05-13T04:27:13.321Z,69.97
2019-05-13T04:29:43.318Z,69.06
2019-05-13T04:32:13.212Z,68.68
2019-05-13T04:34:42.621Z,69.05
2019-05-13T04:37:13.480Z,69.66
2019-05-13T04:39:50.981Z,69.54
2019-05-13T04:42:13.400Z,69.72
2019-05-13T04:44:42.978Z,69.91
2019-05-13T04:47:12.774Z,70.01
2019-05-13T04:49:42.840Z,69.91
2019-05-13T04:52:13.452Z,70.59
2019-05-13T04:54:43.738Z,69.57
2019-05-13T04:57:13.070Z,68.96
2019-05-13T04:59:44.502Z,69.59
2019-05-13T05:02:38.163Z,69.35
2019-05-13T05:05:07.768Z,70.31
2019-05-13T05:08:08.097Z,69.84
2019-05-13T05:11:13.379Z,69.67
2019-05-13T05:13:53.076Z,69.47
2019-05-13T05:16:52.401Z,69.29
2019-05-13T05:19:33.597Z,68.77
2019-05-13T05:22:36.799Z,68.41
2019-05-13T05:25:22.094Z,68.73
2019-05-13T05:28:03.145Z,68.58
2019-05-13T05:30:37.888Z,68.09
2019-05-13T05:33:12.204Z,67.67
2019-05-13T05:36:21.810Z,67.63
2019-05-13T05:39:22.619Z,67.31
2019-05-13T18:56:26.253Z,49.63
2019-05-13T18:58:55.224Z,50.04
2019-05-13T19:02:08.067Z,49.92
2019-05-13T19:06:31.727Z,50.88
2019-05-13T19:20:47.491Z,51.61
2019-05-13T19:23:17.229Z,52.53
2019-05-13T19:30:41.145Z,53.71
2019-05-13T19:33:12.121Z,50.73
2019-05-13T19:35:42.635Z,51.86
2019-05-13T19:38:12.329Z,52.37
2019-05-13T19:40:41.905Z,52.35
2019-05-13T19:43:11.797Z,53.16
2019-05-13T19:45:41.610Z,52.79
2019-05-13T19:48:11.991Z,52.76
2019-05-13T19:50:41.668Z,52.77
2019-05-13T19:53:12.125Z,53.21
2019-05-13T19:55:41.636Z,53.06
2019-05-13T19:58:12.426Z,53.29
2019-05-13T20:00:42.456Z,52.78
2019-05-13T20:03:12.109Z,53.27
2019-05-13T20:05:41.587Z,53.77
2019-05-13T20:08:11.169Z,53.42
2019-05-13T20:10:42.175Z,54.08
2019-05-13T20:13:11.328Z,53.66
2019-05-13T20:15:41.310Z,54.54
2019-05-13T20:18:12.170Z,53.83
2019-05-13T20:20:41.355Z,54.30
2019-05-13T20:23:12.103Z,53.94
2019-05-13T20:25:41.743Z,54.44
2019-05-13T20:28:11.752Z,54.52
2019-05-13T20:30:42.131Z,54.03
2019-05-13T20:33:12.497Z,54.53
2019-05-13T20:35:42.107Z,54.97
2019-05-13T20:38:12.020Z,54.00
2019-05-13T20:40:41.491Z,54.40
2019-05-13T20:43:11.921Z,54.14
2019-05-13T20:45:45.147Z,54.41
2019-05-13T20:48:14.047Z,54.61
2019-05-13T20:50:42.928Z,54.19
2019-05-13T20:53:12.750Z,53.92
2019-05-13T20:55:41.920Z,54.23
2019-05-13T20:58:12.773Z,54.19
2019-05-13T21:00:42.314Z,54.46
2019-05-13T21:03:12.014Z,54.17
2019-05-13T21:05:42.121Z,54.16
2019-05-13T21:08:12.130Z,54.55
2019-05-13T21:10:42.132Z,55.00
2019-05-13T21:13:12.295Z,54.97
2019-05-13T21:15:42.439Z,54.53
2019-05-13T21:18:12.506Z,55.00
2019-05-13T21:20:41.397Z,55.29
2019-05-13T21:23:11.475Z,55.09
2019-05-13T21:25:41.804Z,54.88
2019-05-13T21:28:11.758Z,56.13
2019-05-13T21:30:42.056Z,55.78
2019-05-13T21:33:11.659Z,55.88
2019-05-13T21:35:41.912Z,55.59
2019-05-13T21:38:12.636Z,55.93
2019-05-13T21:40:41.765Z,55.93
2019-05-13T21:43:10.840Z,55.83
2019-05-13T21:45:41.507Z,56.54
2019-05-13T21:48:11.389Z,56.43
2019-05-13T21:50:41.450Z,56.21
2019-05-13T21:53:12.753Z,56.85
2019-05-13T21:55:41.546Z,56.22
2019-05-13T21:58:14.054Z,56.04
2019-05-13T22:00:46.189Z,56.63
2019-05-13T22:03:15.077Z,56.02
2019-05-13T22:05:43.969Z,55.92
2019-05-13T22:08:12.860Z,55.80
2019-05-13T22:10:41.769Z,55.55
2019-05-13T22:13:11.983Z,56.22
2019-05-13T22:15:41.598Z,56.58
2019-05-13T22:18:11.346Z,56.49
2019-05-13T22:20:49.758Z,56.18
2019-05-13T22:23:12.554Z,56.66
2019-05-13T22:25:43.648Z,56.83
2019-05-13T22:28:12.280Z,56.43
2019-05-13T22:30:41.394Z,56.99
2019-05-13T22:33:12.281Z,56.76
2019-05-13T22:35:41.744Z,56.89
2019-05-13T22:38:12.231Z,56.87
2019-05-13T22:40:42.000Z,56.87
2019-05-13T22:43:12.298Z,56.83
2019-05-13T22:45:41.927Z,57.41
2019-05-13T22:48:14.762Z,56.73
2019-05-13T22:50:43.227Z,56.71
2019-05-13T22:53:12.460Z,56.63
2019-05-13T22:55:41.958Z,56.41
2019-05-13T22:58:11.160Z,56.60
2019-05-13T23:00:42.274Z,57.29
2019-05-13T23:03:11.307Z,57.01
2019-05-13T23:05:41.643Z,56.73
2019-05-13T23:08:12.323Z,57.05
2019-05-13T23:10:42.085Z,57.32
2019-05-13T23:13:11.691Z,57.06
2019-05-13T23:15:40.565Z,56.86
2019-05-13T23:18:11.756Z,57.15
2019-05-13T23:20:41.102Z,56.71
2019-05-13T23:23:11.794Z,57.40
2019-05-13T23:25:43.224Z,56.82
2019-05-13T23:28:12.907Z,56.96
2019-05-13T23:30:41.883Z,56.86
2019-05-13T23:33:11.847Z,57.16
2019-05-13T23:35:41.776Z,56.76
2019-05-13T23:38:11.342Z,56.68
2019-05-13T23:40:42.090Z,56.75
2019-05-13T23:43:11.781Z,57.62
2019-05-13T23:45:41.740Z,56.71
2019-05-13T23:48:11.203Z,56.90
2019-05-13T23:50:41.487Z,57.21
2019-05-13T23:53:11.749Z,57.17
2019-05-13T23:55:41.426Z,57.60
2019-05-13T23:58:12.213Z,57.15
